Time;durP1;ratioP1;P1;durP2;ratioP2;P2;SDS_P1;SDS_P2;PMS_P1;PMS_P2;Temp;Humidity;BMP_temperature;BMP_pressure;BME280_temperature;BME280_humidity;BME280_pressure;Samples;Min_cycle;Max_cycle;Signal;HPM_P1;HPM_P2
2022/01/22 10:05:40;;;;;;;2.57;2.30;;;;;;;0.16;100.00;100776.16;15358779;19;20812;-54
2022/01/22 10:11:04;;;;;;;4.00;2.90;;;;;;;0.01;100.00;100760.63;15356317;19;20157;-54
2022/01/22 10:16:23;;;;;;;2.67;1.90;;;;;;;-0.04;100.00;100763.34;15360940;19;20160;-55
2022/01/22 10:21:29;;;;;;;3.03;2.00;;;;;;;0.03;100.00;100779.84;15361959;19;21021;-53
2022/01/22 10:26:33;;;;;;;3.73;3.10;;;;;;;0.42;100.00;100777.53;15357818;19;20390;-52
2022/01/22 10:31:46;;;;;;;2.97;2.30;;;;;;;0.34;100.00;100786.41;15358436;19;20161;-52
2022/01/22 10:37:09;;;;;;;2.40;2.20;;;;;;;0.09;100.00;100803.41;15361253;19;20151;-52
2022/01/22 10:42:26;;;;;;;4.50;2.67;;;;;;;-0.15;100.00;100811.59;15355671;19;20463;-56
2022/01/22 10:47:31;;;;;;;4.23;2.67;;;;;;;-0.11;100.00;100819.38;15361011;19;20214;-52
2022/01/22 10:52:51;;;;;;;2.80;2.57;;;;;;;-0.16;100.00;100836.06;15357821;19;20152;-50
2022/01/22 10:58:09;;;;;;;3.33;2.50;;;;;;;0.08;100.00;100841.00;15359570;19;20164;-51
2022/01/22 11:03:26;;;;;;;3.63;3.30;;;;;;;0.53;100.00;100839.50;15351220;19;20826;-51
2022/01/22 11:08:31;;;;;;;2.30;2.10;;;;;;;0.27;100.00;100842.47;15362033;19;20160;-53
2022/01/22 11:13:36;;;;;;;3.57;2.47;;;;;;;0.22;100.00;100856.56;15329390;19;20141;-53
2022/01/22 11:18:45;;;;;;;2.73;2.37;;;;;;;0.36;100.00;100860.72;15294361;19;20175;-52
2022/01/22 11:23:51;;;;;;;2.87;2.47;;;;;;;0.59;100.00;100906.81;15289687;19;20161;-54
2022/01/22 11:28:58;;;;;;;2.87;2.27;;;;;;;0.64;100.00;100894.47;15296535;19;20155;-53
2022/01/22 11:34:03;;;;;;;3.70;2.77;;;;;;;0.39;100.00;100887.81;15299928;19;20166;-53
2022/01/22 11:39:08;;;;;;;4.20;3.40;;;;;;;0.40;100.00;100884.31;15298119;19;20616;-54
2022/01/22 11:44:17;;;;;;;5.67;4.00;;;;;;;0.23;100.00;100898.56;15291498;19;20154;-53
2022/01/22 11:49:26;;;;;;;4.07;2.67;;;;;;;0.21;100.00;100889.81;15299707;19;20170;-54
2022/01/22 11:54:51;;;;;;;3.40;2.70;;;;;;;0.25;100.00;100899.38;15294251;19;20615;-54
2022/01/22 12:00:27;;;;;;;4.80;3.27;;;;;;;0.21;100.00;100910.81;15286717;19;20153;-53
2022/01/22 12:05:33;;;;;;;4.00;2.67;;;;;;;0.15;100.00;100916.13;15289584;19;20149;-53
2022/01/22 12:10:42;;;;;;;3.73;2.80;;;;;;;0.17;100.00;100937.09;15294086;19;20153;-53
2022/01/22 12:15:54;;;;;;;3.03;2.43;;;;;;;0.20;100.00;100935.31;15295624;19;20606;-53
2022/01/22 12:26:16;;;;;;;4.70;3.40;;;;;;;0.17;100.00;100940.59;15290729;19;20257;-54
2022/01/22 12:31:24;;;;;;;6.47;3.30;;;;;;;0.23;100.00;100943.16;15294270;19;20160;-54
2022/01/22 12:36:41;;;;;;;4.33;3.00;;;;;;;0.29;100.00;100956.19;15298763;19;20510;-53
2022/01/22 12:41:57;;;;;;;7.67;4.27;;;;;;;0.27;100.00;100957.97;15289076;19;20138;-54
2022/01/22 12:47:22;;;;;;;10.67;6.57;;;;;;;0.38;100.00;100964.84;15289187;19;20133;-54
2022/01/22 12:52:29;;;;;;;11.73;6.13;;;;;;;0.41;100.00;100964.81;15288695;19;20208;-54
2022/01/22 12:57:33;;;;;;;3.07;2.50;;;;;;;0.39;100.00;100970.06;15288868;19;20174;-54
2022/01/22 13:02:46;;;;;;;9.00;4.77;;;;;;;0.31;100.00;100975.44;15285945;19;20208;-54
2022/01/22 13:07:55;;;;;;;12.70;7.17;;;;;;;0.41;100.00;100998.94;15287742;19;20150;-53
2022/01/22 13:13:20;;;;;;;23.47;10.83;;;;;;;0.35;100.00;100992.91;15285906;19;20129;-54
2022/01/22 13:18:25;;;;;;;6.80;4.17;;;;;;;0.37;100.00;101032.22;15288263;19;20156;-53
2022/01/22 13:23:29;;;;;;;11.20;5.57;;;;;;;0.34;100.00;101030.53;15286447;19;20162;-54
2022/01/22 13:28:36;;;;;;;5.20;3.07;;;;;;;0.38;100.00;101030.47;15291602;19;20853;-54
2022/01/22 13:33:46;;;;;;;8.10;4.87;;;;;;;0.41;100.00;101027.81;15287240;19;20164;-54
2022/01/22 13:39:08;;;;;;;7.73;4.80;;;;;;;0.43;100.00;101044.44;15284273;19;20227;-54
2022/01/22 13:49:35;;;;;;;4.67;2.93;;;;;;;0.23;100.00;101056.03;15292188;19;20293;-55
2022/01/22 13:54:42;;;;;;;5.37;2.77;;;;;;;0.23;100.00;101055.16;15290516;19;20165;-54
2022/01/22 13:59:53;;;;;;;6.13;3.03;;;;;;;0.18;100.00;101063.06;15286576;19;20153;-53
2022/01/22 14:05:09;;;;;;;6.13;4.40;;;;;;;0.04;100.00;101064.94;15271598;19;20152;-54
2022/01/22 14:10:25;;;;;;;3.57;2.70;;;;;;;-0.05;100.00;101073.78;15271179;19;20152;-55
2022/01/22 14:15:33;;;;;;;5.03;3.63;;;;;;;-0.03;100.00;101071.16;15268227;19;20230;-54
2022/01/22 14:20:46;;;;;;;10.17;6.47;;;;;;;0.13;100.00;101093.72;15267649;19;20148;-54
2022/01/22 14:26:11;;;;;;;17.00;10.17;;;;;;;0.20;100.00;101087.53;15266931;19;20149;-56
2022/01/22 14:31:47;;;;;;;3.90;2.80;;;;;;;0.05;100.00;101103.41;15265664;19;20176;-55
2022/01/22 14:36:51;;;;;;;4.00;2.97;;;;;;;-0.14;100.00;101122.84;15272037;19;20216;-54
2022/01/22 14:47:26;;;;;;;4.23;3.50;;;;;;;-0.51;100.00;101123.09;15267845;19;20149;-53
2022/01/22 14:52:31;;;;;;;5.37;3.07;;;;;;;-0.52;100.00;101120.47;15281123;19;20237;-54
2022/01/22 14:57:38;;;;;;;5.37;2.83;;;;;;;-0.59;100.00;101132.72;15284684;19;20180;-56
2022/01/22 15:02:42;;;;;;;4.27;2.93;;;;;;;-0.59;100.00;101153.69;15291840;19;20176;-51
2022/01/22 15:07:48;;;;;;;5.33;3.33;;;;;;;-0.54;100.00;101153.69;15276213;19;20161;-54
2022/01/22 15:12:53;;;;;;;5.13;4.40;;;;;;;-0.06;100.00;101158.59;15286611;19;20395;-52
2022/01/22 15:18:26;;;;;;;12.83;6.07;;;;;;;-0.30;100.00;101169.28;15276953;19;20195;-51
2022/01/22 15:23:30;;;;;;;5.93;4.00;;;;;;;-0.29;100.00;101167.53;15280570;19;20153;-55
2022/01/22 15:28:43;;;;;;;3.63;3.07;;;;;;;-0.31;100.00;101183.25;15282200;19;20165;-54
2022/01/22 15:33:53;;;;;;;14.70;7.20;;;;;;;-0.33;100.00;101184.16;15281690;19;20152;-53
2022/01/22 15:38:57;;;;;;;8.47;5.03;;;;;;;-0.33;100.00;101199.88;15283383;19;20224;-54
2022/01/22 15:44:07;;;;;;;7.30;4.57;;;;;;;-0.36;100.00;101188.53;15289133;19;20157;-52
2022/01/22 15:49:20;;;;;;;6.90;4.57;;;;;;;-0.33;100.00;101194.63;15292703;19;20153;-54
2022/01/22 15:54:25;;;;;;;7.63;4.00;;;;;;;-0.31;100.00;101198.13;15288532;19;20164;-54
2022/01/22 15:59:29;;;;;;;5.53;4.13;;;;;;;-0.28;100.00;101198.13;15294385;19;20149;-51
2022/01/22 16:04:35;;;;;;;4.77;3.53;;;;;;;-0.27;100.00;101205.09;15293591;19;20919;-51
2022/01/22 16:09:39;;;;;;;28.83;11.53;;;;;;;-0.24;100.00;101210.34;15296349;19;20487;-52
2022/01/22 16:14:58;;;;;;;7.13;3.63;;;;;;;-0.22;100.00;101219.03;15295570;19;20482;-49
2022/01/22 16:20:02;;;;;;;11.90;5.73;;;;;;;-0.22;100.00;101213.78;15298139;19;20141;-52
2022/01/22 16:25:08;;;;;;;6.83;4.50;;;;;;;-0.20;100.00;101233.03;15293210;19;20631;-51
2022/01/22 16:30:12;;;;;;;5.50;3.70;;;;;;;-0.21;100.00;101241.78;15296108;19;20145;-52
2022/01/22 16:35:17;;;;;;;4.50;4.07;;;;;;;-0.22;100.00;101238.28;15294009;19;20232;-52
2022/01/22 16:40:25;;;;;;;6.53;4.27;;;;;;;-0.20;100.00;101238.28;15296199;19;20178;-50
2022/01/22 16:56:15;;;;;;;6.97;4.53;;;;;;;-0.17;100.00;101260.13;15288613;19;20155;-50
2022/01/22 17:01:26;;;;;;;8.98;7.35;;;;;;;0.29;100.00;101268.56;15266435;19;20386;-51
2022/01/22 17:06:32;;;;;;;9.90;5.87;;;;;;;0.05;100.00;101271.34;15275464;19;20161;-51
2022/01/22 17:14:10;;;;;;;9.30;6.67;;;;;;;-0.01;100.00;101271.41;15275950;19;20151;-50
2022/01/22 17:17:08;;;;;;;12.53;8.37;;;;;;;-0.04;100.00;101266.16;15268060;19;20467;-51
2022/01/22 17:22:12;;;;;;;11.67;7.93;;;;;;;-0.03;100.00;101273.16;15273053;19;20530;-52
2022/01/22 17:27:19;;;;;;;11.03;7.33;;;;;;;-0.06;100.00;101273.16;15281482;19;20180;-50
2022/01/22 17:32:24;;;;;;;10.43;6.37;;;;;;;-0.06;100.00;101275.78;15277886;19;20166;-50
2022/01/22 17:37:28;;;;;;;10.03;6.73;;;;;;;-0.08;100.00;101277.56;15275515;19;20575;-50
2022/01/22 17:42:34;;;;;;;21.43;11.53;;;;;;;-0.18;100.00;101268.88;15266125;19;20630;-51
2022/01/22 17:47:40;;;;;;;14.07;7.80;;;;;;;-0.12;100.00;101279.31;15281821;19;20141;-52
2022/01/22 17:52:44;;;;;;;12.87;7.70;;;;;;;-0.13;100.00;101279.34;15278957;19;20157;-51
2022/01/22 17:57:49;;;;;;;14.20;7.87;;;;;;;-0.11;100.00;101288.94;15262794;19;20164;-52
2022/01/22 18:02:53;;;;;;;11.37;9.70;;;;;;;0.42;100.00;101286.84;15256288;19;20723;-53
2022/01/22 18:07:58;;;;;;;8.93;7.00;;;;;;;0.12;100.00;101288.78;15280894;19;20234;-53
2022/01/22 18:13:03;;;;;;;10.60;6.60;;;;;;;0.05;100.00;101287.09;15274004;19;20162;-51
2022/01/22 18:18:08;;;;;;;9.57;6.10;;;;;;;0.00;100.00;101294.16;15276471;19;20156;-52
2022/01/22 18:23:12;;;;;;;10.97;6.63;;;;;;;-0.05;100.00;101301.16;15275905;19;20176;-52
2022/01/22 18:28:17;;;;;;;14.80;9.90;;;;;;;0.02;100.00;101294.97;15284822;19;20735;-51
2022/01/22 18:33:22;;;;;;;12.23;7.40;;;;;;;-0.07;100.00;101292.41;15288275;19;20152;-52
2022/01/22 18:38:27;;;;;;;11.27;7.83;;;;;;;-0.09;100.00;101299.41;15292256;19;20180;-52
2022/01/22 18:43:35;;;;;;;14.47;8.33;;;;;;;-0.10;100.00;101293.28;15275645;19;20167;-52
2022/01/22 18:48:42;;;;;;;13.70;8.53;;;;;;;-0.11;100.00;101302.03;15291402;19;20168;-51
2022/01/22 18:53:47;;;;;;;15.53;9.33;;;;;;;-0.10;100.00;101295.03;15288284;19;20511;-52
2022/01/22 18:58:52;;;;;;;12.77;8.17;;;;;;;-0.10;100.00;101303.78;15287796;19;20148;-52
2022/01/22 19:03:57;;;;;;;12.80;8.07;;;;;;;-0.07;100.00;101302.91;15272951;19;20180;-51
2022/01/22 19:09:01;;;;;;;13.40;9.37;;;;;;;-0.07;100.00;101298.53;15286932;19;20159;-51
2022/01/22 19:14:06;;;;;;;13.40;9.47;;;;;;;-0.09;100.00;101315.16;15282344;19;20167;-51
2022/01/22 19:19:12;;;;;;;11.93;8.30;;;;;;;-0.09;100.00;101309.91;15283584;19;20157;-53
2022/01/22 19:24:24;;;;;;;12.27;8.67;;;;;;;-0.10;100.00;101303.78;15283233;19;20161;-53
2022/01/22 19:29:28;;;;;;;12.23;8.37;;;;;;;-0.09;100.00;101304.66;15284705;19;20144;-51
2022/01/22 19:34:33;;;;;;;11.77;8.53;;;;;;;-0.07;100.00;101297.66;15282376;19;20157;-52
2022/01/22 19:39:39;;;;;;;11.83;8.50;;;;;;;-0.05;100.00;101301.16;15287486;19;20153;-52
2022/01/22 19:44:53;;;;;;;17.87;9.97;;;;;;;-0.03;100.00;101294.16;15276263;19;20180;-53
2022/01/22 19:49:57;;;;;;;12.80;8.50;;;;;;;-0.01;100.00;101300.28;15291154;19;20183;-53
2022/01/22 19:55:02;;;;;;;11.97;8.13;;;;;;;-0.03;100.00;101310.78;15293923;19;20263;-53
2022/01/22 20:00:08;;;;;;;16.10;8.93;;;;;;;-0.02;100.00;101296.78;15293182;19;20152;-52
2022/01/22 20:05:16;;;;;;;14.00;8.53;;;;;;;-0.01;100.00;101308.13;15293391;19;20212;-52
2022/01/22 20:10:24;;;;;;;15.27;9.60;;;;;;;-0.05;100.00;101306.41;15266017;19;20156;-53
2022/01/22 20:15:28;;;;;;;14.93;8.67;;;;;;;-0.09;100.00;101305.53;15279539;19;20152;-52
2022/01/22 20:20:33;;;;;;;15.23;8.57;;;;;;;-0.14;100.00;101295.97;15276066;19;20155;-53
2022/01/22 20:25:58;;;;;;;13.70;7.93;;;;;;;-0.17;100.00;101306.47;15274781;19;20157;-53
2022/01/22 20:31:02;;;;;;;19.00;9.13;;;;;;;-0.17;100.00;101301.22;15279056;19;20515;-53
2022/01/22 20:36:10;;;;;;;11.53;6.23;;;;;;;-0.20;100.00;101309.09;15269771;19;20160;-53
2022/01/22 20:41:17;;;;;;;15.00;7.57;;;;;;;-0.23;100.00;101306.47;15280722;19;20188;-54
2022/01/22 20:46:43;;;;;;;14.10;6.50;;;;;;;-0.23;100.00;101315.22;15279802;19;20157;-53
2022/01/22 20:51:48;;;;;;;11.33;6.17;;;;;;;-0.22;100.00;101323.97;15286289;19;20156;-52
2022/01/22 20:56:54;;;;;;;10.43;5.60;;;;;;;-0.29;100.00;101306.50;15276278;19;20165;-54
2022/01/22 21:01:59;;;;;;;11.17;5.63;;;;;;;-0.33;100.00;101310.91;15271689;19;20173;-53
2022/01/22 21:07:04;;;;;;;9.77;5.83;;;;;;;-0.34;100.00;101313.50;15271901;19;20548;-53
2022/01/22 21:12:09;;;;;;;14.47;7.67;;;;;;;-0.33;100.00;101307.41;15255143;19;20152;-52
2022/01/22 21:17:14;;;;;;;10.23;5.53;;;;;;;-0.34;100.00;101321.38;15273769;19;20161;-53
2022/01/22 21:22:19;;;;;;;10.73;6.10;;;;;;;-0.34;100.00;101321.38;15274678;19;20153;-52
2022/01/22 21:27:23;;;;;;;11.77;6.13;;;;;;;-0.34;100.00;101337.13;15272314;19;20200;-54
2022/01/22 21:32:28;;;;;;;10.70;5.50;;;;;;;-0.34;100.00;101334.50;15273011;19;20157;-54
2022/01/22 21:43:09;;;;;;;9.60;4.87;;;;;;;-0.42;100.00;101348.53;15271963;19;20148;-52
2022/01/22 21:48:14;;;;;;;11.57;5.77;;;;;;;-0.40;100.00;101341.53;15268614;19;20192;-53
2022/01/22 21:53:21;;;;;;;9.47;5.00;;;;;;;-0.42;100.00;101348.53;15268563;19;20212;-52
2022/01/22 21:58:25;;;;;;;8.23;5.07;;;;;;;-0.42;100.00;101335.41;15276893;19;20133;-53
2022/01/22 22:03:30;;;;;;;12.00;5.10;;;;;;;-0.45;100.00;101330.16;15272695;19;20591;-53
2022/01/22 22:08:34;;;;;;;9.20;4.67;;;;;;;-0.44;100.00;101334.53;15278114;19;21175;-53
2022/01/22 22:13:39;;;;;;;9.70;5.00;;;;;;;-0.43;100.00;101336.28;15273472;19;20651;-53
2022/01/22 22:18:44;;;;;;;9.17;5.13;;;;;;;-0.41;100.00;101338.91;15269008;19;20165;-53
2022/01/22 22:23:48;;;;;;;8.50;4.50;;;;;;;-0.38;100.00;101339.78;15273419;19;20169;-53
2022/01/22 22:28:54;;;;;;;6.57;4.57;;;;;;;-0.41;100.00;101339.78;15288047;19;20165;-52
2022/01/22 22:33:59;;;;;;;9.47;4.73;;;;;;;-0.42;100.00;101343.28;15269976;19;20156;-53
2022/01/22 22:39:03;;;;;;;7.07;4.33;;;;;;;-0.36;100.00;101331.88;15274539;19;20174;-54
2022/01/22 22:44:08;;;;;;;10.27;4.83;;;;;;;-0.33;100.00;101354.59;15282707;19;20137;-53
2022/01/22 22:49:12;;;;;;;9.17;4.20;;;;;;;-0.31;100.00;101345.84;15283886;19;20146;-54
2022/01/22 22:54:17;;;;;;;7.90;4.60;;;;;;;-0.31;100.00;101358.09;15281506;19;20137;-52
2022/01/22 22:59:21;;;;;;;9.50;5.30;;;;;;;-0.34;100.00;101363.34;15290069;19;20220;-53
2022/01/22 23:04:25;;;;;;;9.90;5.07;;;;;;;-0.38;100.00;101376.50;15277976;19;20173;-53
2022/01/22 23:09:30;;;;;;;7.53;4.93;;;;;;;-0.38;100.00;101359.88;15293444;19;20137;-53
2022/01/22 23:14:35;;;;;;;8.83;4.50;;;;;;;-0.41;100.00;101359.88;15302944;19;20164;-53
2022/01/22 23:30:27;;;;;;;9.70;4.83;;;;;;;-0.49;100.00;101378.25;15294951;19;20137;-53
2022/01/22 23:35:45;;;;;;;8.40;5.20;;;;;;;-0.50;100.00;101375.63;15293580;19;20457;-54
2022/01/22 23:46:26;;;;;;;12.20;5.07;;;;;;;-0.56;100.00;101386.13;15297997;19;20219;-55
2022/01/22 23:57:02;;;;;;;9.30;4.90;;;;;;;-0.60;100.00;101374.75;15292794;19;20149;-55
